sensor_id;sensor_type;location;lat;lon;timestamp;temperature;humidity
17728;DHT22;8984;49.268;12.302;2022-07-10T00:00:58;19.10;99.90
17728;DHT22;8984;49.268;12.302;2022-07-10T00:03:25;19.10;99.90
17728;DHT22;8984;49.268;12.302;2022-07-10T00:05:52;19.00;99.90
17728;DHT22;8984;49.268;12.302;2022-07-10T00:08:18;19.00;99.90
17728;DHT22;8984;49.268;12.302;2022-07-10T00:10:45;18.90;99.90
17728;DHT22;8984;49.268;12.302;2022-07-10T00:13:13;18.90;99.90
17728;DHT22;8984;49.268;12.302;2022-07-10T00:15:40;18.80;99.90
17728;DHT22;8984;49.268;12.302;2022-07-10T00:18:07;18.80;99.90
17728;DHT22;8984;49.268;12.302;2022-07-10T00:20:34;18.70;99.90
17728;DHT22;8984;49.268;12.302;2022-07-10T00:23:01;18.70;99.90
17728;DHT22;8984;49.268;12.302;2022-07-10T00:25:28;18.60;99.90
17728;DHT22;8984;49.268;12.302;2022-07-10T00:27:55;18.50;99.90
17728;DHT22;8984;49.268;12.302;2022-07-10T00:30:24;18.50;99.90
17728;DHT22;8984;49.268;12.302;2022-07-10T00:32:50;18.50;99.90
17728;DHT22;8984;49.268;12.302;2022-07-10T00:35:17;18.40;99.90
17728;DHT22;8984;49.268;12.302;2022-07-10T00:37:44;18.30;99.90
17728;DHT22;8984;49.268;12.302;2022-07-10T00:40:11;18.30;99.90
17728;DHT22;8984;49.268;12.302;2022-07-10T00:42:38;18.20;99.90
17728;DHT22;8984;49.268;12.302;2022-07-10T00:45:06;18.20;99.90
17728;DHT22;8984;49.268;12.302;2022-07-10T00:47:35;18.20;99.90
17728;DHT22;8984;49.268;12.302;2022-07-10T00:50:02;18.20;99.90
17728;DHT22;8984;49.268;12.302;2022-07-10T00:52:29;18.10;99.90
17728;DHT22;8984;49.268;12.302;2022-07-10T00:54:56;18.00;99.90
17728;DHT22;8984;49.268;12.302;2022-07-10T00:57:24;18.00;99.90
17728;DHT22;8984;49.268;12.302;2022-07-10T00:59:51;17.90;99.90
17728;DHT22;8984;49.268;12.302;2022-07-10T01:02:18;17.80;99.90
17728;DHT22;8984;49.268;12.302;2022-07-10T01:04:47;17.70;99.90
17728;DHT22;8984;49.268;12.302;2022-07-10T01:07:14;17.70;99.90
17728;DHT22;8984;49.268;12.302;2022-07-10T01:09:41;17.70;99.90
17728;DHT22;8984;49.268;12.302;2022-07-10T01:12:08;17.70;99.90
17728;DHT22;8984;49.268;12.302;2022-07-10T01:14:37;17.70;99.90
17728;DHT22;8984;49.268;12.302;2022-07-10T01:17:06;17.60;99.90
17728;DHT22;8984;49.268;12.302;2022-07-10T01:19:34;17.60;99.90
17728;DHT22;8984;49.268;12.302;2022-07-10T01:22:02;17.50;99.90
17728;DHT22;8984;49.268;12.302;2022-07-10T01:24:29;17.50;99.90
17728;DHT22;8984;49.268;12.302;2022-07-10T01:26:56;17.40;99.90
17728;DHT22;8984;49.268;12.302;2022-07-10T01:29:23;17.40;99.90
17728;DHT22;8984;49.268;12.302;2022-07-10T01:31:49;17.30;99.90
17728;DHT22;8984;49.268;12.302;2022-07-10T01:34:16;17.30;99.90
17728;DHT22;8984;49.268;12.302;2022-07-10T01:36:43;17.30;99.90
17728;DHT22;8984;49.268;12.302;2022-07-10T01:39:11;17.30;99.90
17728;DHT22;8984;49.268;12.302;2022-07-10T01:41:38;17.30;99.90
17728;DHT22;8984;49.268;12.302;2022-07-10T01:44:05;17.20;99.90
17728;DHT22;8984;49.268;12.302;2022-07-10T01:46:32;17.20;99.90
17728;DHT22;8984;49.268;12.302;2022-07-10T01:48:58;17.20;99.90
17728;DHT22;8984;49.268;12.302;2022-07-10T01:51:25;17.10;99.90
17728;DHT22;8984;49.268;12.302;2022-07-10T01:53:52;17.00;99.90
17728;DHT22;8984;49.268;12.302;2022-07-10T01:56:20;17.00;99.90
17728;DHT22;8984;49.268;12.302;2022-07-10T01:58:47;17.00;99.90
17728;DHT22;8984;49.268;12.302;2022-07-10T02:01:13;16.90;99.90
17728;DHT22;8984;49.268;12.302;2022-07-10T02:03:40;16.90;99.90
17728;DHT22;8984;49.268;12.302;2022-07-10T02:06:25;16.90;99.90
17728;DHT22;8984;49.268;12.302;2022-07-10T02:08:52;16.70;99.90
17728;DHT22;8984;49.268;12.302;2022-07-10T02:11:20;16.70;99.90
17728;DHT22;8984;49.268;12.302;2022-07-10T02:13:47;16.60;99.90
17728;DHT22;8984;49.268;12.302;2022-07-10T02:16:13;16.60;99.90
17728;DHT22;8984;49.268;12.302;2022-07-10T02:18:40;16.60;99.90
17728;DHT22;8984;49.268;12.302;2022-07-10T02:21:07;16.60;99.90
17728;DHT22;8984;49.268;12.302;2022-07-10T02:23:34;16.70;99.90
17728;DHT22;8984;49.268;12.302;2022-07-10T02:26:01;16.70;99.90
17728;DHT22;8984;49.268;12.302;2022-07-10T02:28:30;16.70;99.90
17728;DHT22;8984;49.268;12.302;2022-07-10T02:30:57;16.70;99.90
17728;DHT22;8984;49.268;12.302;2022-07-10T02:33:24;16.70;99.90
17728;DHT22;8984;49.268;12.302;2022-07-10T02:35:51;16.70;99.90
17728;DHT22;8984;49.268;12.302;2022-07-10T02:38:17;16.70;99.90
17728;DHT22;8984;49.268;12.302;2022-07-10T02:40:44;16.60;99.90
17728;DHT22;8984;49.268;12.302;2022-07-10T02:43:11;16.60;99.90
17728;DHT22;8984;49.268;12.302;2022-07-10T02:45:39;16.60;99.90
17728;DHT22;8984;49.268;12.302;2022-07-10T02:48:06;16.60;99.90
17728;DHT22;8984;49.268;12.302;2022-07-10T02:50:33;16.70;99.90
17728;DHT22;8984;49.268;12.302;2022-07-10T02:53:00;16.80;99.90
17728;DHT22;8984;49.268;12.302;2022-07-10T02:55:28;16.80;99.90
17728;DHT22;8984;49.268;12.302;2022-07-10T02:57:57;16.70;99.90
17728;DHT22;8984;49.268;12.302;2022-07-10T03:00:24;16.70;99.90
17728;DHT22;8984;49.268;12.302;2022-07-10T03:02:52;16.70;99.90
17728;DHT22;8984;49.268;12.302;2022-07-10T03:05:18;16.70;99.90
17728;DHT22;8984;49.268;12.302;2022-07-10T03:07:45;16.80;99.90
17728;DHT22;8984;49.268;12.302;2022-07-10T03:10:12;16.80;99.90
17728;DHT22;8984;49.268;12.302;2022-07-10T03:12:39;16.90;99.90
17728;DHT22;8984;49.268;12.302;2022-07-10T03:15:06;16.90;99.90
17728;DHT22;8984;49.268;12.302;2022-07-10T03:17:34;16.80;99.90
17728;DHT22;8984;49.268;12.302;2022-07-10T03:20:05;16.70;99.90
17728;DHT22;8984;49.268;12.302;2022-07-10T03:22:32;16.60;99.90
17728;DHT22;8984;49.268;12.302;2022-07-10T03:24:59;16.60;99.90
17728;DHT22;8984;49.268;12.302;2022-07-10T03:27:26;16.60;99.90
17728;DHT22;8984;49.268;12.302;2022-07-10T03:29:53;16.60;99.90
17728;DHT22;8984;49.268;12.302;2022-07-10T03:32:20;16.60;99.90
17728;DHT22;8984;49.268;12.302;2022-07-10T03:34:46;16.60;99.90
17728;DHT22;8984;49.268;12.302;2022-07-10T03:37:15;16.60;99.90
17728;DHT22;8984;49.268;12.302;2022-07-10T03:39:41;16.60;99.90
17728;DHT22;8984;49.268;12.302;2022-07-10T03:42:08;16.60;99.90
17728;DHT22;8984;49.268;12.302;2022-07-10T03:44:35;16.60;99.90
17728;DHT22;8984;49.268;12.302;2022-07-10T03:47:02;16.70;99.90
17728;DHT22;8984;49.268;12.302;2022-07-10T03:49:29;16.70;99.90
17728;DHT22;8984;49.268;12.302;2022-07-10T03:51:59;16.70;99.90
17728;DHT22;8984;49.268;12.302;2022-07-10T03:54:27;16.80;99.90
17728;DHT22;8984;49.268;12.302;2022-07-10T03:56:54;16.80;99.90
17728;DHT22;8984;49.268;12.302;2022-07-10T03:59:47;16.80;99.90
17728;DHT22;8984;49.268;12.302;2022-07-10T04:02:14;16.90;99.90
17728;DHT22;8984;49.268;12.302;2022-07-10T04:04:41;16.90;99.90
17728;DHT22;8984;49.268;12.302;2022-07-10T04:07:08;16.90;99.90
17728;DHT22;8984;49.268;12.302;2022-07-10T04:09:37;16.80;99.90
17728;DHT22;8984;49.268;12.302;2022-07-10T04:12:05;16.60;99.90
17728;DHT22;8984;49.268;12.302;2022-07-10T04:14:31;16.60;99.90
17728;DHT22;8984;49.268;12.302;2022-07-10T04:16:58;16.60;99.90
17728;DHT22;8984;49.268;12.302;2022-07-10T04:19:25;16.70;99.90
17728;DHT22;8984;49.268;12.302;2022-07-10T04:21:52;16.80;99.90
17728;DHT22;8984;49.268;12.302;2022-07-10T04:24:18;16.70;99.90
17728;DHT22;8984;49.268;12.302;2022-07-10T04:26:46;16.60;99.90
17728;DHT22;8984;49.268;12.302;2022-07-10T04:29:14;16.60;99.90
17728;DHT22;8984;49.268;12.302;2022-07-10T04:31:41;16.80;99.90
17728;DHT22;8984;49.268;12.302;2022-07-10T04:34:08;16.90;99.90
17728;DHT22;8984;49.268;12.302;2022-07-10T04:36:34;17.30;99.90
17728;DHT22;8984;49.268;12.302;2022-07-10T04:39:01;18.00;99.90
17728;DHT22;8984;49.268;12.302;2022-07-10T04:41:28;18.50;99.90
17728;DHT22;8984;49.268;12.302;2022-07-10T04:43:56;18.60;99.90
17728;DHT22;8984;49.268;12.302;2022-07-10T04:46:23;18.50;99.90
17728;DHT22;8984;49.268;12.302;2022-07-10T04:48:49;18.10;99.90
17728;DHT22;8984;49.268;12.302;2022-07-10T04:51:17;17.60;99.90
17728;DHT22;8984;49.268;12.302;2022-07-10T04:53:43;17.30;99.90
17728;DHT22;8984;49.268;12.302;2022-07-10T04:56:10;16.90;99.90
17728;DHT22;8984;49.268;12.302;2022-07-10T04:58:37;16.60;99.90
17728;DHT22;8984;49.268;12.302;2022-07-10T05:01:05;16.70;99.90
17728;DHT22;8984;49.268;12.302;2022-07-10T05:03:32;16.50;99.90
17728;DHT22;8984;49.268;12.302;2022-07-10T05:05:59;16.50;99.90
17728;DHT22;8984;49.268;12.302;2022-07-10T05:08:25;16.40;99.90
17728;DHT22;8984;49.268;12.302;2022-07-10T05:10:52;16.40;99.90
17728;DHT22;8984;49.268;12.302;2022-07-10T05:13:19;16.30;99.90
17728;DHT22;8984;49.268;12.302;2022-07-10T05:15:46;16.10;99.90
17728;DHT22;8984;49.268;12.302;2022-07-10T05:18:14;16.30;99.90
17728;DHT22;8984;49.268;12.302;2022-07-10T05:20:41;16.40;99.90
17728;DHT22;8984;49.268;12.302;2022-07-10T05:23:10;16.40;99.90
17728;DHT22;8984;49.268;12.302;2022-07-10T05:25:37;16.40;99.90
17728;DHT22;8984;49.268;12.302;2022-07-10T05:28:04;16.40;99.90
17728;DHT22;8984;49.268;12.302;2022-07-10T05:30:31;16.10;99.90
17728;DHT22;8984;49.268;12.302;2022-07-10T05:32:58;16.10;99.90
17728;DHT22;8984;49.268;12.302;2022-07-10T05:35:27;15.90;99.90
17728;DHT22;8984;49.268;12.302;2022-07-10T05:37:53;16.20;99.90
17728;DHT22;8984;49.268;12.302;2022-07-10T05:40:20;16.10;99.90
17728;DHT22;8984;49.268;12.302;2022-07-10T05:42:47;16.10;99.90
17728;DHT22;8984;49.268;12.302;2022-07-10T05:45:14;16.20;99.90
17728;DHT22;8984;49.268;12.302;2022-07-10T05:47:41;16.50;99.90
17728;DHT22;8984;49.268;12.302;2022-07-10T05:50:08;16.10;99.90
17728;DHT22;8984;49.268;12.302;2022-07-10T05:52:36;15.80;99.90
17728;DHT22;8984;49.268;12.302;2022-07-10T05:55:04;15.90;99.90
17728;DHT22;8984;49.268;12.302;2022-07-10T05:57:31;15.90;99.90
17728;DHT22;8984;49.268;12.302;2022-07-10T05:59:58;15.90;99.90
17728;DHT22;8984;49.268;12.302;2022-07-10T06:02:25;15.80;99.90
17728;DHT22;8984;49.268;12.302;2022-07-10T06:04:52;15.90;99.90
17728;DHT22;8984;49.268;12.302;2022-07-10T06:07:19;15.70;99.90
17728;DHT22;8984;49.268;12.302;2022-07-10T06:09:47;15.60;99.90
17728;DHT22;8984;49.268;12.302;2022-07-10T06:12:14;15.60;99.90
17728;DHT22;8984;49.268;12.302;2022-07-10T06:14:41;15.80;99.90
17728;DHT22;8984;49.268;12.302;2022-07-10T06:17:08;15.80;99.90
17728;DHT22;8984;49.268;12.302;2022-07-10T06:19:34;16.20;99.90
17728;DHT22;8984;49.268;12.302;2022-07-10T06:22:01;16.40;99.90
17728;DHT22;8984;49.268;12.302;2022-07-10T06:24:47;16.10;99.90
17728;DHT22;8984;49.268;12.302;2022-07-10T06:27:14;15.90;99.90
17728;DHT22;8984;49.268;12.302;2022-07-10T06:29:41;16.10;99.90
17728;DHT22;8984;49.268;12.302;2022-07-10T06:32:08;16.00;99.90
17728;DHT22;8984;49.268;12.302;2022-07-10T06:34:35;16.00;99.90
17728;DHT22;8984;49.268;12.302;2022-07-10T06:37:01;16.10;99.90
17728;DHT22;8984;49.268;12.302;2022-07-10T06:39:32;16.20;99.90
17728;DHT22;8984;49.268;12.302;2022-07-10T06:42:01;16.70;99.90
17728;DHT22;8984;49.268;12.302;2022-07-10T06:44:28;16.80;99.90
17728;DHT22;8984;49.268;12.302;2022-07-10T06:46:55;16.90;99.90
17728;DHT22;8984;49.268;12.302;2022-07-10T06:49:39;16.90;99.90
17728;DHT22;8984;49.268;12.302;2022-07-10T06:52:06;16.30;99.90
17728;DHT22;8984;49.268;12.302;2022-07-10T06:54:33;16.40;99.90
17728;DHT22;8984;49.268;12.302;2022-07-10T06:57:02;16.30;99.90
17728;DHT22;8984;49.268;12.302;2022-07-10T06:59:29;16.40;99.90
17728;DHT22;8984;49.268;12.302;2022-07-10T07:01:56;16.40;99.90
17728;DHT22;8984;49.268;12.302;2022-07-10T07:04:23;16.70;99.90
17728;DHT22;8984;49.268;12.302;2022-07-10T07:06:49;16.60;99.90
17728;DHT22;8984;49.268;12.302;2022-07-10T07:09:16;16.80;99.90
17728;DHT22;8984;49.268;12.302;2022-07-10T07:11:43;17.10;99.90
17728;DHT22;8984;49.268;12.302;2022-07-10T07:14:12;17.30;99.90
17728;DHT22;8984;49.268;12.302;2022-07-10T07:16:39;17.20;99.90
17728;DHT22;8984;49.268;12.302;2022-07-10T07:19:08;17.30;99.90
17728;DHT22;8984;49.268;12.302;2022-07-10T07:21:37;17.30;99.90
17728;DHT22;8984;49.268;12.302;2022-07-10T07:24:21;17.40;99.90
17728;DHT22;8984;49.268;12.302;2022-07-10T07:26:49;17.30;99.90
17728;DHT22;8984;49.268;12.302;2022-07-10T07:29:17;17.50;99.90
17728;DHT22;8984;49.268;12.302;2022-07-10T07:31:45;16.90;99.90
17728;DHT22;8984;49.268;12.302;2022-07-10T07:34:12;17.10;99.90
17728;DHT22;8984;49.268;12.302;2022-07-10T07:36:39;17.20;99.90
17728;DHT22;8984;49.268;12.302;2022-07-10T07:39:06;17.20;99.90
17728;DHT22;8984;49.268;12.302;2022-07-10T07:41:33;17.60;99.90
17728;DHT22;8984;49.268;12.302;2022-07-10T07:44:00;17.80;99.90
17728;DHT22;8984;49.268;12.302;2022-07-10T07:46:28;17.80;99.90
17728;DHT22;8984;49.268;12.302;2022-07-10T07:48:55;17.80;99.90
17728;DHT22;8984;49.268;12.302;2022-07-10T07:51:24;17.90;98.90
17728;DHT22;8984;49.268;12.302;2022-07-10T07:53:51;17.40;97.40
17728;DHT22;8984;49.268;12.302;2022-07-10T07:56:19;17.60;97.50
17728;DHT22;8984;49.268;12.302;2022-07-10T07:58:46;17.60;97.50
17728;DHT22;8984;49.268;12.302;2022-07-10T08:01:13;17.80;96.40
17728;DHT22;8984;49.268;12.302;2022-07-10T08:03:42;18.30;96.80
17728;DHT22;8984;49.268;12.302;2022-07-10T08:06:09;18.20;95.20
17728;DHT22;8984;49.268;12.302;2022-07-10T08:08:36;18.60;94.90
17728;DHT22;8984;49.268;12.302;2022-07-10T08:11:07;18.70;94.90
17728;DHT22;8984;49.268;12.302;2022-07-10T08:13:35;18.60;94.10
17728;DHT22;8984;49.268;12.302;2022-07-10T08:16:02;18.80;94.80
17728;DHT22;8984;49.268;12.302;2022-07-10T08:18:29;18.90;94.10
17728;DHT22;8984;49.268;12.302;2022-07-10T08:20:57;19.20;94.30
17728;DHT22;8984;49.268;12.302;2022-07-10T08:23:24;19.00;92.10
17728;DHT22;8984;49.268;12.302;2022-07-10T08:25:50;18.50;93.30
17728;DHT22;8984;49.268;12.302;2022-07-10T08:28:17;18.70;92.80
17728;DHT22;8984;49.268;12.302;2022-07-10T08:30:44;18.50;92.60
17728;DHT22;8984;49.268;12.302;2022-07-10T08:33:11;18.90;92.80
17728;DHT22;8984;49.268;12.302;2022-07-10T08:35:38;18.90;92.40
17728;DHT22;8984;49.268;12.302;2022-07-10T08:38:08;19.10;92.30
17728;DHT22;8984;49.268;12.302;2022-07-10T08:40:36;18.30;91.60
17728;DHT22;8984;49.268;12.302;2022-07-10T08:43:06;18.20;92.20
17728;DHT22;8984;49.268;12.302;2022-07-10T08:45:33;18.00;91.90
17728;DHT22;8984;49.268;12.302;2022-07-10T08:48:02;18.50;92.80
17728;DHT22;8984;49.268;12.302;2022-07-10T08:50:32;18.70;91.80
17728;DHT22;8984;49.268;12.302;2022-07-10T08:53:06;18.70;91.10
17728;DHT22;8984;49.268;12.302;2022-07-10T08:55:36;19.00;92.20
17728;DHT22;8984;49.268;12.302;2022-07-10T08:58:03;19.50;91.50
17728;DHT22;8984;49.268;12.302;2022-07-10T09:00:30;19.20;90.30
17728;DHT22;8984;49.268;12.302;2022-07-10T09:02:57;19.20;91.10
17728;DHT22;8984;49.268;12.302;2022-07-10T09:05:24;19.40;90.40
17728;DHT22;8984;49.268;12.302;2022-07-10T09:07:52;19.80;90.90
17728;DHT22;8984;49.268;12.302;2022-07-10T09:10:20;19.90;90.00
17728;DHT22;8984;49.268;12.302;2022-07-10T09:12:54;19.20;88.90
17728;DHT22;8984;49.268;12.302;2022-07-10T09:15:23;19.50;90.30
17728;DHT22;8984;49.268;12.302;2022-07-10T09:17:52;19.80;89.50
17728;DHT22;8984;49.268;12.302;2022-07-10T09:20:30;19.70;87.40
17728;DHT22;8984;49.268;12.302;2022-07-10T09:22:59;19.40;89.00
17728;DHT22;8984;49.268;12.302;2022-07-10T09:25:30;19.10;89.80
17728;DHT22;8984;49.268;12.302;2022-07-10T09:27:59;19.40;90.80
17728;DHT22;8984;49.268;12.302;2022-07-10T09:30:38;19.30;90.10
17728;DHT22;8984;49.268;12.302;2022-07-10T09:33:18;19.40;89.10
17728;DHT22;8984;49.268;12.302;2022-07-10T09:36:02;19.20;88.40
17728;DHT22;8984;49.268;12.302;2022-07-10T09:38:54;19.50;90.80
17728;DHT22;8984;49.268;12.302;2022-07-10T09:41:27;19.50;88.50
17728;DHT22;8984;49.268;12.302;2022-07-10T09:43:56;19.60;89.10
17728;DHT22;8984;49.268;12.302;2022-07-10T09:46:26;19.50;88.50
17728;DHT22;8984;49.268;12.302;2022-07-10T09:49:04;19.90;88.40
17728;DHT22;8984;49.268;12.302;2022-07-10T09:51:32;19.40;88.50
17728;DHT22;8984;49.268;12.302;2022-07-10T09:54:01;19.30;87.70
17728;DHT22;8984;49.268;12.302;2022-07-10T09:56:33;19.40;87.70
17728;DHT22;8984;49.268;12.302;2022-07-10T09:59:08;18.70;87.30
17728;DHT22;8984;49.268;12.302;2022-07-10T10:01:36;18.50;90.00
17728;DHT22;8984;49.268;12.302;2022-07-10T10:04:04;19.20;90.50
17728;DHT22;8984;49.268;12.302;2022-07-10T10:06:33;19.20;89.20
17728;DHT22;8984;49.268;12.302;2022-07-10T10:09:04;19.60;89.30
17728;DHT22;8984;49.268;12.302;2022-07-10T10:11:33;19.90;88.30
17728;DHT22;8984;49.268;12.302;2022-07-10T10:14:06;19.90;89.60
17728;DHT22;8984;49.268;12.302;2022-07-10T10:16:33;20.20;87.20
17728;DHT22;8984;49.268;12.302;2022-07-10T10:19:02;20.30;85.80
17728;DHT22;8984;49.268;12.302;2022-07-10T10:21:47;20.60;86.30
17728;DHT22;8984;49.268;12.302;2022-07-10T10:24:14;20.90;82.50
17728;DHT22;8984;49.268;12.302;2022-07-10T10:26:43;21.20;83.60
17728;DHT22;8984;49.268;12.302;2022-07-10T10:29:13;21.10;82.10
17728;DHT22;8984;49.268;12.302;2022-07-10T10:31:40;21.30;82.10
17728;DHT22;8984;49.268;12.302;2022-07-10T10:34:08;21.50;82.90
17728;DHT22;8984;49.268;12.302;2022-07-10T10:36:46;21.50;83.90
17728;DHT22;8984;49.268;12.302;2022-07-10T10:39:15;21.50;82.90
17728;DHT22;8984;49.268;12.302;2022-07-10T10:41:49;21.40;83.60
17728;DHT22;8984;49.268;12.302;2022-07-10T10:44:27;21.20;83.10
17728;DHT22;8984;49.268;12.302;2022-07-10T10:47:05;21.10;82.30
17728;DHT22;8984;49.268;12.302;2022-07-10T10:49:54;21.10;84.20
17728;DHT22;8984;49.268;12.302;2022-07-10T10:52:24;21.50;82.80
17728;DHT22;8984;49.268;12.302;2022-07-10T10:55:15;21.20;81.10
17728;DHT22;8984;49.268;12.302;2022-07-10T10:57:43;21.20;84.20
17728;DHT22;8984;49.268;12.302;2022-07-10T11:00:29;21.10;81.40
17728;DHT22;8984;49.268;12.302;2022-07-10T11:03:16;21.10;82.50
17728;DHT22;8984;49.268;12.302;2022-07-10T11:05:44;21.10;83.30
17728;DHT22;8984;49.268;12.302;2022-07-10T11:08:12;21.00;81.90
17728;DHT22;8984;49.268;12.302;2022-07-10T11:10:41;21.20;82.40
17728;DHT22;8984;49.268;12.302;2022-07-10T11:13:08;21.10;82.10
17728;DHT22;8984;49.268;12.302;2022-07-10T11:15:39;20.90;82.80
17728;DHT22;8984;49.268;12.302;2022-07-10T11:18:09;20.30;82.30
17728;DHT22;8984;49.268;12.302;2022-07-10T11:20:37;19.90;85.30
17728;DHT22;8984;49.268;12.302;2022-07-10T11:23:30;20.20;86.50
17728;DHT22;8984;49.268;12.302;2022-07-10T11:26:03;20.40;84.50
17728;DHT22;8984;49.268;12.302;2022-07-10T11:28:49;20.40;84.20
17728;DHT22;8984;49.268;12.302;2022-07-10T11:31:18;20.20;84.20
17728;DHT22;8984;49.268;12.302;2022-07-10T11:33:45;20.40;84.90
17728;DHT22;8984;49.268;12.302;2022-07-10T11:36:15;20.90;85.10
17728;DHT22;8984;49.268;12.302;2022-07-10T11:38:42;20.90;82.80
17728;DHT22;8984;49.268;12.302;2022-07-10T11:41:14;21.10;84.60
17728;DHT22;8984;49.268;12.302;2022-07-10T11:43:50;20.70;83.40
17728;DHT22;8984;49.268;12.302;2022-07-10T11:46:20;21.00;83.50
17728;DHT22;8984;49.268;12.302;2022-07-10T11:48:48;20.80;83.00
17728;DHT22;8984;49.268;12.302;2022-07-10T11:51:22;21.00;83.90
17728;DHT22;8984;49.268;12.302;2022-07-10T11:53:57;21.10;84.90
17728;DHT22;8984;49.268;12.302;2022-07-10T11:56:25;20.20;84.30
17728;DHT22;8984;49.268;12.302;2022-07-10T11:58:56;20.30;85.00
17728;DHT22;8984;49.268;12.302;2022-07-10T12:01:25;20.20;84.20
17728;DHT22;8984;49.268;12.302;2022-07-10T12:03:56;20.70;84.10
17728;DHT22;8984;49.268;12.302;2022-07-10T12:06:24;21.10;84.60
17728;DHT22;8984;49.268;12.302;2022-07-10T12:08:51;21.20;83.90
17728;DHT22;8984;49.268;12.302;2022-07-10T12:11:20;21.20;82.70
17728;DHT22;8984;49.268;12.302;2022-07-10T12:13:48;21.60;83.20
17728;DHT22;8984;49.268;12.302;2022-07-10T12:16:16;22.00;80.70
17728;DHT22;8984;49.268;12.302;2022-07-10T12:18:45;22.30;80.20
17728;DHT22;8984;49.268;12.302;2022-07-10T12:21:13;22.00;79.70
17728;DHT22;8984;49.268;12.302;2022-07-10T12:23:42;21.30;81.30
17728;DHT22;8984;49.268;12.302;2022-07-10T12:26:10;20.70;81.90
17728;DHT22;8984;49.268;12.302;2022-07-10T12:28:48;20.80;82.40
17728;DHT22;8984;49.268;12.302;2022-07-10T12:31:23;20.30;83.30
17728;DHT22;8984;49.268;12.302;2022-07-10T12:33:52;20.20;84.60
17728;DHT22;8984;49.268;12.302;2022-07-10T12:36:20;20.50;85.20
17728;DHT22;8984;49.268;12.302;2022-07-10T12:38:54;20.80;85.30
17728;DHT22;8984;49.268;12.302;2022-07-10T12:41:21;21.10;83.80
17728;DHT22;8984;49.268;12.302;2022-07-10T12:43:50;21.20;82.80
17728;DHT22;8984;49.268;12.302;2022-07-10T12:46:19;21.30;83.90
17728;DHT22;8984;49.268;12.302;2022-07-10T12:51:46;21.50;83.40
17728;DHT22;8984;49.268;12.302;2022-07-10T12:54:34;21.80;81.50
17728;DHT22;8984;49.268;12.302;2022-07-10T12:57:03;21.80;81.40
17728;DHT22;8984;49.268;12.302;2022-07-10T12:59:33;21.50;79.40
17728;DHT22;8984;49.268;12.302;2022-07-10T13:02:14;21.60;79.20
17728;DHT22;8984;49.268;12.302;2022-07-10T13:04:51;21.60;79.30
17728;DHT22;8984;49.268;12.302;2022-07-10T13:07:20;21.40;79.10
17728;DHT22;8984;49.268;12.302;2022-07-10T13:09:54;21.40;80.20
17728;DHT22;8984;49.268;12.302;2022-07-10T13:12:21;21.80;81.10
17728;DHT22;8984;49.268;12.302;2022-07-10T13:14:48;22.00;79.50
17728;DHT22;8984;49.268;12.302;2022-07-10T13:17:15;21.50;78.10
17728;DHT22;8984;49.268;12.302;2022-07-10T13:19:42;21.30;78.10
17728;DHT22;8984;49.268;12.302;2022-07-10T13:22:09;21.10;78.70
17728;DHT22;8984;49.268;12.302;2022-07-10T13:24:37;21.30;80.40
17728;DHT22;8984;49.268;12.302;2022-07-10T13:27:04;21.30;81.10
17728;DHT22;8984;49.268;12.302;2022-07-10T13:29:33;21.40;79.90
17728;DHT22;8984;49.268;12.302;2022-07-10T13:32:00;21.70;80.20
17728;DHT22;8984;49.268;12.302;2022-07-10T13:34:26;21.50;80.20
17728;DHT22;8984;49.268;12.302;2022-07-10T13:36:53;21.50;80.00
17728;DHT22;8984;49.268;12.302;2022-07-10T13:39:21;21.40;81.40
17728;DHT22;8984;49.268;12.302;2022-07-10T13:41:49;21.30;80.50
17728;DHT22;8984;49.268;12.302;2022-07-10T13:44:16;21.60;82.20
17728;DHT22;8984;49.268;12.302;2022-07-10T13:46:43;21.70;80.80
17728;DHT22;8984;49.268;12.302;2022-07-10T13:49:10;21.70;81.10
17728;DHT22;8984;49.268;12.302;2022-07-10T13:51:37;22.00;81.10
17728;DHT22;8984;49.268;12.302;2022-07-10T13:54:03;22.00;81.00
17728;DHT22;8984;49.268;12.302;2022-07-10T13:56:30;22.20;80.40
17728;DHT22;8984;49.268;12.302;2022-07-10T13:58:59;22.30;79.40
17728;DHT22;8984;49.268;12.302;2022-07-10T14:01:26;22.10;80.10
17728;DHT22;8984;49.268;12.302;2022-07-10T14:03:52;21.90;80.00
17728;DHT22;8984;49.268;12.302;2022-07-10T14:06:19;21.70;79.90
17728;DHT22;8984;49.268;12.302;2022-07-10T14:08:46;21.60;80.50
17728;DHT22;8984;49.268;12.302;2022-07-10T14:11:13;21.80;80.60
17728;DHT22;8984;49.268;12.302;2022-07-10T14:13:40;22.00;80.40
17728;DHT22;8984;49.268;12.302;2022-07-10T14:16:08;21.90;80.10
17728;DHT22;8984;49.268;12.302;2022-07-10T14:18:35;21.90;79.90
17728;DHT22;8984;49.268;12.302;2022-07-10T14:21:03;21.30;79.20
17728;DHT22;8984;49.268;12.302;2022-07-10T14:23:31;21.30;80.50
17728;DHT22;8984;49.268;12.302;2022-07-10T14:25:58;21.30;80.50
17728;DHT22;8984;49.268;12.302;2022-07-10T14:28:25;20.60;79.50
17728;DHT22;8984;49.268;12.302;2022-07-10T14:30:51;20.90;81.10
17728;DHT22;8984;49.268;12.302;2022-07-10T14:33:20;20.70;80.50
17728;DHT22;8984;49.268;12.302;2022-07-10T14:35:47;20.60;81.30
17728;DHT22;8984;49.268;12.302;2022-07-10T14:38:16;20.60;80.30
17728;DHT22;8984;49.268;12.302;2022-07-10T14:40:43;20.70;82.50
17728;DHT22;8984;49.268;12.302;2022-07-10T14:43:10;20.90;81.60
17728;DHT22;8984;49.268;12.302;2022-07-10T14:45:37;20.60;81.60
17728;DHT22;8984;49.268;12.302;2022-07-10T14:48:04;20.60;82.50
17728;DHT22;8984;49.268;12.302;2022-07-10T14:50:33;21.00;83.00
17728;DHT22;8984;49.268;12.302;2022-07-10T14:53:00;21.20;82.70
17728;DHT22;8984;49.268;12.302;2022-07-10T14:55:26;21.50;82.40
17728;DHT22;8984;49.268;12.302;2022-07-10T14:57:53;21.60;80.60
17728;DHT22;8984;49.268;12.302;2022-07-10T15:00:20;21.60;81.20
17728;DHT22;8984;49.268;12.302;2022-07-10T15:02:47;21.70;80.00
17728;DHT22;8984;49.268;12.302;2022-07-10T15:05:13;21.60;79.40
17728;DHT22;8984;49.268;12.302;2022-07-10T15:07:41;21.20;79.50
17728;DHT22;8984;49.268;12.302;2022-07-10T15:10:09;20.80;80.10
17728;DHT22;8984;49.268;12.302;2022-07-10T15:12:35;20.50;80.40
17728;DHT22;8984;49.268;12.302;2022-07-10T15:15:04;20.50;82.20
17728;DHT22;8984;49.268;12.302;2022-07-10T15:17:33;20.70;82.60
17728;DHT22;8984;49.268;12.302;2022-07-10T15:20:00;20.80;81.50
17728;DHT22;8984;49.268;12.302;2022-07-10T15:22:27;20.60;82.00
17728;DHT22;8984;49.268;12.302;2022-07-10T15:24:55;20.70;81.30
17728;DHT22;8984;49.268;12.302;2022-07-10T15:27:21;20.80;82.30
17728;DHT22;8984;49.268;12.302;2022-07-10T15:29:48;20.90;80.80
17728;DHT22;8984;49.268;12.302;2022-07-10T15:32:15;20.60;82.00
17728;DHT22;8984;49.268;12.302;2022-07-10T15:34:42;20.90;81.80
17728;DHT22;8984;49.268;12.302;2022-07-10T15:37:09;20.80;80.70
17728;DHT22;8984;49.268;12.302;2022-07-10T15:39:36;20.90;81.10
17728;DHT22;8984;49.268;12.302;2022-07-10T15:42:09;21.10;81.10